Time;durP1;ratioP1;P1;durP2;ratioP2;P2;SDS_P1;SDS_P2;PMS_P1;PMS_P2;Temp;Humidity;BMP_temperature;BMP_pressure;BME280_temperature;BME280_humidity;BME280_pressure;Samples;Min_cycle;Max_cycle;Signal;HPM_P1;HPM_P2
2021/08/16 00:02:26;;;;;;;;;21.00;20.00;;;;;27.09;51.63;98221.53;6092711;28;98116;-60
2021/08/16 00:05:29;;;;;;;;;21.80;20.20;;;;;27.10;51.65;98225.91;6075452;28;97862;-61
2021/08/16 00:08:33;;;;;;;;;20.40;20.00;;;;;27.08;51.69;98219.91;6091678;28;97425;-62
2021/08/16 00:11:36;;;;;;;;;21.00;18.40;;;;;27.09;51.83;98233.41;6091944;28;97567;-62
2021/08/16 00:14:43;;;;;;;;;24.40;21.00;;;;;27.08;51.91;98225.44;6091331;28;97447;-62
2021/08/16 00:17:47;;;;;;;;;20.25;20.00;;;;;27.09;52.35;98238.94;6092003;28;98082;-61
2021/08/16 00:20:51;;;;;;;;;19.60;19.00;;;;;27.09;51.82;98238.94;6092086;28;97012;-62
2021/08/16 00:23:55;;;;;;;;;21.00;18.60;;;;;27.10;52.11;98237.00;6092002;28;96617;-60
2021/08/16 00:26:59;;;;;;;;;20.00;19.00;;;;;27.09;52.69;98232.59;6091925;28;97275;-62
2021/08/16 00:30:05;;;;;;;;;23.00;22.00;;;;;27.16;52.60;98221.78;6073908;28;96970;-62
2021/08/16 00:33:09;;;;;;;;;23.00;21.00;;;;;27.19;52.51;98221.06;6091587;28;97212;-62
2021/08/16 00:36:12;;;;;;;;;21.40;19.40;;;;;27.17;52.52;98225.34;6091874;28;97464;-62
2021/08/16 00:39:15;;;;;;;;;19.00;18.67;;;;;27.17;52.57;98221.41;6091633;28;97602;-62
2021/08/16 00:42:19;;;;;;;;;17.20;17.20;;;;;27.14;52.54;98222.13;6091792;28;96603;-61
2021/08/16 00:45:26;;;;;;;;;22.00;21.00;;;;;27.14;52.49;98210.25;6091367;28;97286;-61
2021/08/16 00:48:29;;;;;;;;;21.00;19.80;;;;;27.14;52.42;98218.53;6090195;28;96574;-60
2021/08/16 00:51:33;;;;;;;;;19.60;18.00;;;;;27.05;52.82;98218.66;6074200;28;97419;-62
2021/08/16 00:54:37;;;;;;;;;20.00;19.00;;;;;27.03;52.81;98228.44;6092157;28;97520;-60
2021/08/16 00:57:42;;;;;;;;;20.50;18.75;;;;;27.05;53.05;98228.91;6091293;28;96649;-61
2021/08/16 01:00:46;;;;;;;;;19.00;18.60;;;;;27.07;53.04;98219.09;6059190;28;100370;-60
2021/08/16 01:03:50;;;;;;;;;22.40;19.00;;;;;27.13;53.38;98214.16;6072590;28;97465;-60
2021/08/16 01:06:53;;;;;;;;;26.00;24.00;;;;;27.17;53.31;98193.75;6073625;28;98924;-62
2021/08/16 01:09:57;;;;;;;;;23.40;21.00;;;;;27.15;53.97;98195.25;6091149;28;97451;-62
2021/08/16 01:13:05;;;;;;;;;22.25;21.00;;;;;27.04;54.42;98196.88;6091360;28;96600;-60
2021/08/16 01:16:10;;;;;;;;;22.80;21.20;;;;;26.99;54.38;98199.88;6073640;28;97774;-61
2021/08/16 01:19:13;;;;;;;;;20.60;20.20;;;;;26.94;54.34;98202.84;6090824;28;96667;-62
2021/08/16 01:22:17;;;;;;;;;23.00;20.40;;;;;26.83;54.19;98185.88;6091141;28;97478;-62
2021/08/16 01:25:20;;;;;;;;;23.00;22.00;;;;;26.82;54.76;98186.25;6074219;28;97131;-62
2021/08/16 01:28:26;;;;;;;;;21.60;20.60;;;;;26.82;54.81;98161.34;6089298;28;96563;-61
2021/08/16 01:31:29;;;;;;;;;23.00;22.00;;;;;26.77;54.95;98153.28;6073080;28;96753;-62
2021/08/16 01:34:34;;;;;;;;;26.40;24.40;;;;;26.75;55.04;98139.78;6090128;28;97477;-62
2021/08/16 01:37:37;;;;;;;;;23.60;22.00;;;;;26.79;54.91;98137.94;6090586;28;97469;-61
2021/08/16 01:40:41;;;;;;;;;21.25;21.25;;;;;26.78;54.98;98130.78;6091339;28;96558;-61
2021/08/16 01:43:45;;;;;;;;;21.00;20.00;;;;;26.80;54.71;98153.38;6072766;28;100028;-62
2021/08/16 01:46:49;;;;;;;;;22.00;20.00;;;;;26.83;54.77;98151.91;6089669;28;97401;-63
2021/08/16 01:49:53;;;;;;;;;19.60;18.00;;;;;26.88;54.17;98160.00;6090004;28;97498;-61
2021/08/16 01:52:56;;;;;;;;;21.00;19.00;;;;;26.92;54.30;98158.16;6072825;28;98090;-61
2021/08/16 01:56:00;;;;;;;;;20.00;19.50;;;;;27.01;53.83;98158.84;6090029;28;97615;-61
2021/08/16 01:59:05;;;;;;;;;21.00;20.00;;;;;27.08;53.56;98151.56;6090206;28;96896;-60
2021/08/16 02:02:08;;;;;;;;;19.20;19.00;;;;;27.12;53.59;98148.94;6089671;28;96570;-62
2021/08/16 02:05:12;;;;;;;;;18.00;18.00;;;;;27.16;53.10;98152.59;6089502;28;96620;-62
2021/08/16 02:08:15;;;;;;;;;21.00;21.00;;;;;27.21;53.34;98141.28;6072924;28;97224;-62
2021/08/16 02:11:19;;;;;;;;;23.60;21.60;;;;;27.24;52.76;98140.59;6089908;28;97531;-61
2021/08/16 02:14:23;;;;;;;;;20.60;19.60;;;;;27.28;53.12;98138.72;6088680;28;97041;-62
2021/08/16 02:17:27;;;;;;;;;18.00;17.40;;;;;27.34;51.97;98153.13;6071666;28;98207;-63
2021/08/16 02:20:31;;;;;;;;;20.25;17.75;;;;;27.27;52.57;98199.97;6090433;28;96689;-61
2021/08/16 02:23:34;;;;;;;;;22.40;21.00;;;;;27.17;52.90;98178.31;6089900;28;97465;-61
2021/08/16 02:26:37;;;;;;;;;24.50;22.50;;;;;27.12;53.24;98210.56;6088644;28;97094;-61
2021/08/16 02:29:42;;;;;;;;;21.00;19.40;;;;;27.12;52.92;98176.59;6089656;28;97466;-61
2021/08/16 02:32:46;;;;;;;;;20.00;19.00;;;;;27.09;52.84;98169.78;6071792;28;99776;-62
2021/08/16 02:35:49;;;;;;;;;19.60;17.60;;;;;27.05;52.82;98168.06;6089766;28;97185;-62
2021/08/16 02:38:53;;;;;;;;;21.20;19.00;;;;;26.98;52.91;98146.50;6071826;28;96795;-62
2021/08/16 02:41:56;;;;;;;;;20.20;19.20;;;;;26.77;53.60;98139.47;6089320;28;97250;-60
2021/08/16 02:45:01;;;;;;;;;18.60;17.60;;;;;26.68;53.57;98129.31;6089273;28;97460;-60
2021/08/16 02:48:05;;;;;;;;;23.00;21.40;;;;;26.68;53.34;98118.25;6089288;28;97531;-61
2021/08/16 02:51:08;;;;;;;;;21.00;20.00;;;;;26.67;53.64;98138.78;6090575;28;97210;-62
2021/08/16 02:54:12;;;;;;;;;22.20;21.00;;;;;26.64;53.84;98155.22;6088509;28;97474;-62
2021/08/16 02:57:15;;;;;;;;;20.00;18.00;;;;;26.61;53.89;98122.75;6089677;28;97457;-60
2021/08/16 03:00:20;;;;;;;;;23.00;20.00;;;;;26.54;54.37;98133.56;6089190;28;96564;-62
2021/08/16 03:03:23;;;;;;;;;21.00;18.80;;;;;26.46;54.78;98159.34;6089056;28;97408;-62
2021/08/16 03:06:27;;;;;;;;;23.00;21.60;;;;;26.42;54.52;98164.78;6089345;28;98080;-62
2021/08/16 03:09:31;;;;;;;;;19.25;19.00;;;;;26.35;54.50;98161.75;6088370;28;96712;-60
2021/08/16 03:12:34;;;;;;;;;21.67;20.00;;;;;26.20;54.83;98165.94;6088831;28;97470;-61
2021/08/16 03:15:39;;;;;;;;;20.00;19.40;;;;;26.19;54.74;98156.03;6088248;28;97551;-60
2021/08/16 03:18:43;;;;;;;;;20.00;19.00;;;;;26.17;54.99;98155.59;6073489;28;97470;-61
2021/08/16 03:21:46;;;;;;;;;20.00;20.00;;;;;26.16;54.94;98150.38;6088429;28;96647;-61
2021/08/16 03:24:49;;;;;;;;;24.40;20.40;;;;;26.12;55.55;98143.94;6089586;28;97311;-62
2021/08/16 03:27:52;;;;;;;;;19.60;18.60;;;;;26.14;55.14;98133.38;6091983;28;96683;-62
2021/08/16 03:30:59;;;;;;;;;21.60;20.00;;;;;26.08;55.16;98126.44;6074942;28;96730;-62
2021/08/16 03:34:03;;;;;;;;;19.80;19.00;;;;;25.81;55.45;98086.41;6092897;28;96765;-61
2021/08/16 03:37:06;;;;;;;;;21.00;19.40;;;;;26.08;55.17;98118.16;6074757;28;98675;-61
2021/08/16 03:40:11;;;;;;;;;18.00;17.00;;;;;26.09;54.99;98117.81;6092836;28;97283;-62
2021/08/16 03:43:17;;;;;;;;;21.00;19.00;;;;;26.11;54.52;98103.63;6092161;28;97429;-60
2021/08/16 03:46:22;;;;;;;;;23.50;20.75;;;;;26.18;54.76;98099.19;6105357;28;97636;-62
2021/08/16 03:49:25;;;;;;;;;21.00;20.40;;;;;26.22;54.54;98088.28;6092333;28;97129;-61
2021/08/16 03:52:28;;;;;;;;;19.00;18.80;;;;;26.22;54.74;98091.84;6092117;28;96465;-60
2021/08/16 03:55:32;;;;;;;;;22.80;21.40;;;;;26.24;54.43;98086.78;6092766;28;97273;-60
2021/08/16 03:58:35;;;;;;;;;21.00;19.40;;;;;26.29;54.55;98072.72;6074271;28;97815;-62
2021/08/16 04:01:39;;;;;;;;;22.00;20.00;;;;;26.32;54.83;98062.97;6075170;28;97134;-62
2021/08/16 04:04:43;;;;;;;;;23.00;20.60;;;;;26.37;54.63;98057.22;6059208;28;96662;-62
2021/08/16 04:07:46;;;;;;;;;53.00;43.00;;;;;26.41;54.49;98049.84;6091848;28;97533;-62
2021/08/16 04:10:53;;;;;;;;;46.00;38.00;;;;;26.50;54.23;98047.75;6091979;28;96765;-62
2021/08/16 04:13:56;;;;;;;;;27.20;26.20;;;;;26.55;54.15;98042.00;6091796;28;96518;-61
2021/08/16 04:17:01;;;;;;;;;22.40;19.40;;;;;26.66;53.51;98056.16;6090914;28;97481;-61
2021/08/16 04:20:06;;;;;;;;;17.00;16.00;;;;;26.75;52.83;98056.84;6091285;28;96787;-60
2021/08/16 04:23:09;;;;;;;;;19.00;18.00;;;;;26.88;53.13;98058.44;6091495;28;97119;-62
2021/08/16 04:26:12;;;;;;;;;19.00;19.00;;;;;26.97;53.71;98058.34;6058222;28;98644;-60
2021/08/16 04:29:16;;;;;;;;;18.00;18.00;;;;;27.03;53.36;98068.00;6091370;28;96546;-62
2021/08/16 04:32:20;;;;;;;;;18.60;17.60;;;;;27.16;52.38;98077.91;6090761;28;97436;-62
2021/08/16 04:35:24;;;;;;;;;19.80;18.00;;;;;27.27;51.89;98070.69;6091680;28;96573;-60
2021/08/16 04:38:27;;;;;;;;;19.75;17.00;;;;;27.33;52.29;98063.75;6073864;28;96566;-62
2021/08/16 04:41:30;;;;;;;;;19.60;17.00;;;;;27.47;52.27;98055.84;6091276;28;98104;-62
2021/08/16 04:44:34;;;;;;;;;18.00;16.00;;;;;27.54;51.26;98058.88;6091064;28;97404;-62
2021/08/16 04:47:42;;;;;;;;;14.50;14.50;;;;;27.70;50.41;98060.88;6074468;28;96861;-62
2021/08/16 04:50:45;;;;;;;;;20.00;17.00;;;;;27.86;50.17;98051.41;6077404;28;96525;-61
2021/08/16 04:53:49;;;;;;;;;18.00;16.60;;;;;28.01;50.01;98055.38;6091381;28;97266;-62
2021/08/16 04:56:52;;;;;;;;;16.80;15.80;;;;;28.15;50.34;98036.38;6091561;28;97441;-62
2021/08/16 04:59:55;;;;;;;;;17.20;16.20;;;;;28.27;50.27;98049.34;6073579;28;97539;-61
2021/08/16 05:03:02;;;;;;;;;15.40;15.40;;;;;28.37;48.60;98076.53;6089463;28;98121;-62
2021/08/16 05:06:07;;;;;;;;;16.60;15.00;;;;;28.37;49.12;98060.69;6090141;28;97546;-62
2021/08/16 05:09:11;;;;;;;;;17.00;15.00;;;;;28.45;49.56;98069.97;6090428;28;97601;-61
2021/08/16 05:12:14;;;;;;;;;20.00;18.20;;;;;28.44;48.56;98063.63;6088745;28;97256;-62
2021/08/16 05:15:18;;;;;;;;;18.40;17.00;;;;;28.36;48.67;98064.63;6091533;28;97604;-60
2021/08/16 05:18:23;;;;;;;;;17.00;16.25;;;;;28.42;48.54;98062.41;6074223;28;96779;-62
2021/08/16 05:21:26;;;;;;;;;16.00;16.00;;;;;28.42;47.65;98054.88;6091526;28;96485;-60
2021/08/16 05:24:32;;;;;;;;;17.00;15.60;;;;;28.44;48.40;98049.78;6091073;28;97128;-61
2021/08/16 05:27:35;;;;;;;;;16.00;14.25;;;;;28.43;48.68;98056.50;6091946;28;97650;-61
2021/08/16 05:30:38;;;;;;;;;16.00;15.25;;;;;28.40;49.18;98059.16;6089824;28;96593;-62
2021/08/16 05:33:43;;;;;;;;;17.60;16.60;;;;;28.36;50.30;98053.53;6066368;28;96769;-62
2021/08/16 05:36:46;;;;;;;;;17.20;16.00;;;;;28.39;50.97;98069.44;6076064;28;97218;-63
2021/08/16 05:39:50;;;;;;;;;19.00;18.00;;;;;28.42;50.80;98077.06;6090989;28;96703;-62
2021/08/16 05:42:53;;;;;;;;;16.00;15.00;;;;;28.55;51.19;98090.81;6090875;28;97480;-61
2021/08/16 05:45:56;;;;;;;;;17.60;17.00;;;;;28.71;50.64;98097.16;6090160;28;98086;-60
2021/08/16 05:49:01;;;;;;;;;16.20;15.20;;;;;28.92;49.53;98114.34;6090710;28;97442;-61
2021/08/16 05:52:05;;;;;;;;;16.00;15.00;;;;;29.17;48.91;98112.97;6090433;28;97348;-63
2021/08/16 05:55:09;;;;;;;;;16.00;14.00;;;;;29.43;48.29;98128.19;6076851;28;97156;-61
2021/08/16 05:58:12;;;;;;;;;16.50;15.50;;;;;29.57;47.93;98126.53;6089554;28;97219;-62
2021/08/16 06:01:16;;;;;;;;;18.00;16.40;;;;;29.69;47.30;98126.41;6089277;28;97528;-62
2021/08/16 06:04:21;;;;;;;;;16.00;15.00;;;;;29.84;46.68;98130.25;6086943;28;97482;-61
2021/08/16 06:07:25;;;;;;;;;17.00;16.00;;;;;29.93;47.90;98133.66;6089372;28;97512;-62
2021/08/16 06:10:29;;;;;;;;;18.00;18.00;;;;;30.13;48.10;98156.66;6088265;28;97553;-60
2021/08/16 06:13:32;;;;;;;;;22.00;21.00;;;;;30.27;47.15;98145.00;6088868;28;96715;-62
2021/08/16 06:16:37;;;;;;;;;22.00;21.00;;;;;30.37;47.33;98147.19;6089445;28;96674;-60
2021/08/16 06:19:41;;;;;;;;;24.40;22.40;;;;;30.38;47.40;98151.56;6055877;28;97955;-62
2021/08/16 06:22:45;;;;;;;;;23.80;22.00;;;;;30.46;46.56;98158.88;6084308;28;96863;-62
2021/08/16 06:25:48;;;;;;;;;24.00;22.60;;;;;30.53;46.84;98165.41;6087038;28;96672;-62
2021/08/16 06:28:51;;;;;;;;;25.60;23.60;;;;;30.68;47.59;98180.38;6088749;28;97635;-62
2021/08/16 06:31:55;;;;;;;;;24.00;24.00;;;;;30.78;46.48;98176.97;6089546;28;96731;-61
2021/08/16 06:35:00;;;;;;;;;25.00;24.00;;;;;30.88;46.12;98193.03;6089338;28;96497;-61
2021/08/16 06:38:09;;;;;;;;;27.00;24.00;;;;;30.95;45.99;98184.78;6089290;28;97672;-61
2021/08/16 06:41:14;;;;;;;;;25.60;25.00;;;;;31.14;46.11;98185.91;6071639;28;99646;-61
2021/08/16 06:44:19;;;;;;;;;27.40;24.00;;;;;31.35;45.89;98189.00;6089081;28;97498;-62
2021/08/16 06:47:23;;;;;;;;;21.40;20.40;;;;;31.46;45.01;98184.41;6079729;28;96880;-61
2021/08/16 06:50:27;;;;;;;;;22.20;21.40;;;;;31.61;44.38;98185.44;6089570;28;97349;-62
2021/08/16 06:53:31;;;;;;;;;24.00;23.00;;;;;31.75;44.26;98186.44;6093851;28;97533;-62
2021/08/16 06:56:34;;;;;;;;;25.00;23.00;;;;;31.91;44.19;98188.22;6071509;28;96765;-60
2021/08/16 06:59:37;;;;;;;;;24.00;21.33;;;;;32.09;43.89;98184.47;6089577;28;96750;-62
2021/08/16 07:02:41;;;;;;;;;24.80;22.80;;;;;32.31;43.77;98191.09;6094033;28;97253;-62
2021/08/16 07:05:47;;;;;;;;;24.60;21.60;;;;;32.49;41.91;98192.09;6093000;28;96844;-59
2021/08/16 07:08:51;;;;;;;;;20.40;20.00;;;;;32.64;42.10;98199.47;6093834;28;96767;-59
2021/08/16 07:11:56;;;;;;;;;21.20;19.20;;;;;32.82;41.55;98207.19;6092097;28;97346;-60
2021/08/16 07:14:59;;;;;;;;;23.50;22.00;;;;;32.96;40.80;98201.72;6092664;28;97083;-61
2021/08/16 07:18:03;;;;;;;;;21.00;20.20;;;;;33.06;41.24;98192.63;6093080;28;98160;-61
2021/08/16 07:21:09;;;;;;;;;21.00;19.80;;;;;33.25;40.49;98200.00;6093514;28;97622;-59
2021/08/16 07:24:13;;;;;;;;;21.00;20.75;;;;;33.32;39.63;98180.50;6074699;28;96943;-59
2021/08/16 07:27:16;;;;;;;;;21.33;21.00;;;;;33.66;39.02;98195.88;6083788;28;97434;-59
2021/08/16 07:30:21;;;;;;;;;21.60;20.00;;;;;33.83;39.41;98194.38;6090578;28;97498;-59
2021/08/16 07:33:25;;;;;;;;;22.00;20.40;;;;;34.05;39.43;98192.47;6092811;28;97578;-59
2021/08/16 07:36:29;;;;;;;;;24.00;22.00;;;;;34.14;38.12;98192.91;6092354;28;97449;-60
2021/08/16 07:39:33;;;;;;;;;21.40;21.00;;;;;34.32;38.63;98203.00;6091881;28;98218;-58
2021/08/16 07:42:38;;;;;;;;;19.00;19.00;;;;;34.29;36.94;98198.19;6076180;28;97039;-59
2021/08/16 07:45:41;;;;;;;;;22.00;21.00;;;;;34.38;37.22;98192.22;6091507;28;97537;-60
2021/08/16 07:48:45;;;;;;;;;23.00;22.00;;;;;34.32;36.91;98202.19;6077243;28;97267;-61
2021/08/16 07:51:49;;;;;;;;;21.75;21.25;;;;;34.25;36.62;98199.38;6090008;28;98955;-59
2021/08/16 07:54:57;;;;;;;;;23.00;20.00;;;;;34.16;37.46;98191.31;6069354;28;97562;-60
2021/08/16 07:58:00;;;;;;;;;20.50;19.50;;;;;34.36;37.64;98208.59;6086262;28;98597;-60
2021/08/16 08:01:03;;;;;;;;;22.40;21.40;;;;;34.39;37.44;98207.81;6091525;28;97648;-59
2021/08/16 08:04:06;;;;;;;;;21.50;19.00;;;;;34.11;36.88;98224.47;6072418;28;97810;-61
2021/08/16 08:07:11;;;;;;;;;22.00;20.33;;;;;33.94;37.99;98226.78;6091635;28;98017;-58
2021/08/16 08:10:16;;;;;;;;;20.00;18.25;;;;;33.94;37.77;98226.00;6091533;28;96784;-58
2021/08/16 08:13:20;;;;;;;;;21.20;18.80;;;;;34.28;38.57;98221.75;6081628;28;97447;-58
2021/08/16 08:16:23;;;;;;;;;23.00;22.00;;;;;34.53;38.10;98212.63;6090709;28;96731;-60
2021/08/16 08:19:27;;;;;;;;;22.00;21.00;;;;;34.82;37.81;98221.91;6092408;28;97965;-58
2021/08/16 08:22:32;;;;;;;;;21.00;21.00;;;;;34.96;37.17;98219.13;6091415;28;96908;-60
2021/08/16 08:25:38;;;;;;;;;23.00;22.40;;;;;34.97;37.14;98221.53;6091824;28;96770;-59
2021/08/16 08:28:41;;;;;;;;;21.33;21.00;;;;;34.93;37.02;98215.13;6074530;28;98516;-58
2021/08/16 08:31:44;;;;;;;;;22.00;20.00;;;;;35.01;37.72;98222.31;6081060;28;97263;-59
2021/08/16 08:34:47;;;;;;;;;20.00;19.00;;;;;35.30;36.97;98214.75;6092269;28;97485;-60
2021/08/16 08:37:52;;;;;;;;;23.00;21.00;;;;;35.66;36.12;98220.31;6090069;28;97996;-61
2021/08/16 08:41:00;;;;;;;;;22.00;21.00;;;;;35.72;36.02;98222.31;6091054;28;97444;-61
2021/08/16 08:44:09;;;;;;;;;22.00;21.00;;;;;35.71;36.32;98212.31;6092120;28;96620;-60
2021/08/16 08:47:14;;;;;;;;;21.20;20.00;;;;;35.87;35.74;98214.66;6090905;28;97546;-58
2021/08/16 08:50:17;;;;;;;;;22.40;21.00;;;;;35.99;36.11;98212.19;6091289;28;96995;-59
2021/08/16 08:53:22;;;;;;;;;22.60;20.60;;;;;36.21;34.90;98212.94;6092217;28;97400;-58
2021/08/16 08:56:25;;;;;;;;;21.00;19.50;;;;;36.37;35.04;98213.25;6090171;28;98360;-61
2021/08/16 08:59:28;;;;;;;;;18.60;17.60;;;;;36.61;33.87;98216.34;6090185;28;97471;-58
2021/08/16 09:02:31;;;;;;;;;22.00;21.00;;;;;36.48;33.66;98210.38;6090178;28;97463;-61
2021/08/16 09:05:48;;;;;;;;;19.00;17.00;;;;;36.43;33.67;98214.44;6090746;28;97272;-60
2021/08/16 09:08:53;;;;;;;;;21.00;19.00;;;;;36.40;33.78;98208.84;6091631;28;96477;-59
2021/08/16 09:11:56;;;;;;;;;20.60;18.60;;;;;36.40;34.06;98206.84;6091475;28;97423;-61
2021/08/16 09:15:01;;;;;;;;;18.60;17.60;;;;;36.44;34.20;98207.59;6091759;28;96485;-61
2021/08/16 09:18:05;;;;;;;;;19.00;17.00;;;;;36.60;33.43;98201.50;6089488;28;97190;-61
2021/08/16 09:21:12;;;;;;;;;19.00;17.75;;;;;36.76;33.11;98193.38;6090859;28;97535;-61
2021/08/16 09:24:23;;;;;;;;;20.60;19.60;;;;;37.04;32.78;98194.38;6088801;28;97451;-60
2021/08/16 09:27:26;;;;;;;;;18.00;17.00;;;;;37.21;32.36;98190.63;6088582;28;97647;-59
2021/08/16 09:30:32;;;;;;;;;15.00;15.00;;;;;37.39;31.52;98193.28;6073359;28;96653;-59
2021/08/16 09:33:36;;;;;;;;;18.00;18.00;;;;;37.21;31.74;98183.00;6092355;28;98422;-60
2021/08/16 09:36:41;;;;;;;;;16.60;14.00;;;;;37.09;31.52;98175.09;6071471;28;97811;-60
2021/08/16 09:39:57;;;;;;;;;16.00;14.00;;;;;37.09;31.37;98183.53;6055715;28;97317;-59
2021/08/16 09:43:01;;;;;;;;;17.25;15.00;;;;;36.95;31.25;98163.16;6080104;28;96694;-60
2021/08/16 09:46:14;;;;;;;;;15.60;15.00;;;;;36.97;30.22;98167.13;6095212;28;97511;-59
2021/08/16 09:49:23;;;;;;;;;14.00;14.00;;;;;37.31;29.24;98184.91;6085680;28;97443;-61
2021/08/16 09:52:30;;;;;;;;;12.80;12.80;;;;;37.61;29.94;98181.41;6091857;28;97405;-61
2021/08/16 09:55:38;;;;;;;;;14.00;13.00;;;;;37.49;29.47;98178.28;6097445;28;96953;-59
2021/08/16 09:58:42;;;;;;;;;15.60;14.20;;;;;37.29;29.66;98178.09;6096333;28;97967;-61
2021/08/16 10:01:45;;;;;;;;;14.00;12.60;;;;;37.09;29.29;98172.28;6089217;28;96615;-60
2021/08/16 10:04:49;;;;;;;;;13.00;13.00;;;;;37.19;29.75;98167.78;6089243;28;96684;-62
2021/08/16 10:07:57;;;;;;;;;15.00;14.00;;;;;37.44;29.96;98167.50;6076960;28;97427;-60
2021/08/16 10:11:02;;;;;;;;;15.25;13.00;;;;;37.63;29.42;98164.13;6095079;28;97469;-62
2021/08/16 10:14:06;;;;;;;;;13.00;13.00;;;;;37.79;29.11;98167.13;6094050;28;97202;-61
2021/08/16 10:17:09;;;;;;;;;11.40;10.40;;;;;37.78;27.34;98168.34;6101906;28;97642;-59
2021/08/16 10:20:14;;;;;;;;;12.00;12.00;;;;;37.85;28.67;98167.47;6095889;28;96635;-62
2021/08/16 10:23:21;;;;;;;;;11.00;11.00;;;;;37.78;27.75;98164.75;6096736;28;96737;-61
2021/08/16 10:26:28;;;;;;;;;11.00;11.00;;;;;37.94;27.72;98146.06;6096712;28;96535;-61
2021/08/16 10:29:33;;;;;;;;;13.20;11.80;;;;;37.91;28.08;98163.00;6102288;28;97367;-62
2021/08/16 10:32:36;;;;;;;;;14.00;12.00;;;;;37.96;28.42;98154.88;6098615;28;97602;-60
2021/08/16 10:35:41;;;;;;;;;13.00;12.60;;;;;37.96;28.62;98154.88;6101563;28;96567;-61
2021/08/16 10:38:48;;;;;;;;;13.00;12.00;;;;;37.95;28.91;98142.03;6079609;28;97574;-60
2021/08/16 10:42:04;;;;;;;;;13.00;12.00;;;;;38.00;28.77;98140.78;6093858;28;97573;-60
2021/08/16 10:45:09;;;;;;;;;12.50;11.25;;;;;37.99;28.89;98136.38;6094198;28;97400;-59
2021/08/16 10:48:22;;;;;;;;;11.00;11.00;;;;;38.03;28.88;98132.28;6093530;28;96753;-58
2021/08/16 10:51:25;;;;;;;;;12.25;11.75;;;;;38.13;28.25;98124.91;6075039;28;96772;-61
2021/08/16 10:54:30;;;;;;;;;13.75;12.00;;;;;38.04;28.17;98128.25;6091522;28;96733;-60
2021/08/16 10:57:36;;;;;;;;;13.00;12.00;;;;;38.17;29.23;98119.25;6093936;28;98034;-62
2021/08/16 11:00:43;;;;;;;;;10.25;10.25;;;;;38.12;28.05;98115.66;6092636;28;97612;-62
2021/08/16 11:03:55;;;;;;;;;11.75;11.00;;;;;38.00;27.48;98113.44;6092917;28;97414;-61
2021/08/16 11:07:01;;;;;;;;;11.25;11.00;;;;;37.99;28.91;98109.03;6093419;28;96583;-60
2021/08/16 11:10:07;;;;;;;;;11.00;10.60;;;;;38.04;28.11;98110.56;6059707;28;96687;-60
2021/08/16 11:13:16;;;;;;;;;12.40;11.40;;;;;38.06;27.11;98106.13;6092368;28;96540;-60
2021/08/16 11:16:20;;;;;;;;;10.00;9.75;;;;;38.28;26.36;98109.41;6092931;28;97571;-61
2021/08/16 11:19:40;;;;;;;;;12.00;11.00;;;;;38.53;26.60;98114.69;6091728;28;97021;-61
2021/08/16 11:22:51;;;;;;;;;10.00;10.00;;;;;38.80;25.47;98109.84;6092278;28;97752;-61
2021/08/16 11:25:59;;;;;;;;;10.60;10.00;;;;;38.76;24.91;98111.88;6077082;28;97397;-59
2021/08/16 11:29:05;;;;;;;;;9.40;9.40;;;;;38.64;25.98;98108.91;6092289;28;97540;-60
2021/08/16 11:32:09;;;;;;;;;10.40;10.00;;;;;38.65;25.37;98102.03;6076981;28;96657;-62
2021/08/16 11:35:12;;;;;;;;;8.50;7.00;;;;;38.55;25.72;98113.06;6089045;28;96937;-61
2021/08/16 11:38:16;;;;;;;;;9.00;9.00;;;;;38.46;25.66;98103.56;6086604;28;98177;-60
2021/08/16 11:41:19;;;;;;;;;8.00;8.00;;;;;38.52;25.48;98097.00;6091156;28;97539;-61
2021/08/16 11:44:37;;;;;;;;;10.00;9.40;;;;;38.67;26.16;98100.38;6078484;28;96828;-59
2021/08/16 11:47:43;;;;;;;;;11.00;10.00;;;;;38.62;25.69;98089.59;6099544;28;96822;-62
2021/08/16 11:50:46;;;;;;;;;9.40;9.00;;;;;38.62;25.32;98098.03;6099461;28;96737;-59
2021/08/16 11:53:50;;;;;;;;;11.00;11.00;;;;;38.71;25.67;98083.44;6099194;28;97461;-60
2021/08/16 11:56:54;;;;;;;;;11.75;10.00;;;;;38.83;25.02;98091.25;6099267;28;97052;-62
2021/08/16 12:00:05;;;;;;;;;9.00;9.00;;;;;38.98;24.68;98082.16;6090032;28;96828;-57
2021/08/16 12:03:15;;;;;;;;;9.00;9.00;;;;;39.07;24.70;98075.16;6081963;28;97521;-61
2021/08/16 12:06:20;;;;;;;;;9.60;9.60;;;;;39.12;25.07;98072.63;6078535;28;96979;-59
2021/08/16 12:09:33;;;;;;;;;11.00;10.00;;;;;39.12;24.76;98077.47;6093427;28;96639;-62
2021/08/16 12:12:37;;;;;;;;;10.00;10.00;;;;;39.05;24.43;98072.00;6092703;28;96581;-61
2021/08/16 12:15:53;;;;;;;;;10.00;10.00;;;;;38.96;24.87;98070.50;6091102;28;97663;-59
2021/08/16 12:18:59;;;;;;;;;10.00;9.50;;;;;38.93;25.27;98068.56;6091851;28;96660;-61
2021/08/16 12:22:06;;;;;;;;;10.00;9.60;;;;;38.84;24.84;98059.03;6092689;28;96636;-59
2021/08/16 12:25:23;;;;;;;;;8.00;8.00;;;;;38.77;24.69;98065.59;6286052;27;96448;-58
2021/08/16 12:28:40;;;;;;;;;10.00;10.00;;;;;38.89;25.42;98067.03;6286421;27;96695;-59
2021/08/16 12:31:55;;;;;;;;;11.00;11.00;;;;;38.96;25.58;98064.06;6285479;27;96142;-58
2021/08/16 12:35:16;;;;;;;;;10.00;9.00;;;;;38.90;25.54;98060.94;6286657;27;96753;-60
2021/08/16 12:38:32;;;;;;;;;11.00;9.00;;;;;38.82;24.75;98055.84;6261045;27;96243;-60
2021/08/16 12:41:48;;;;;;;;;10.40;8.40;;;;;38.55;24.92;98051.09;6282674;27;96507;-60
2021/08/16 12:45:04;;;;;;;;;9.60;9.60;;;;;38.58;25.80;98049.44;6284722;27;96968;-60
2021/08/16 12:48:19;;;;;;;;;10.40;10.00;;;;;38.54;25.06;98054.34;6277695;27;96287;-61
2021/08/16 12:51:34;;;;;;;;;10.00;9.00;;;;;38.36;25.49;98051.78;6285957;27;96547;-59
2021/08/16 12:54:49;;;;;;;;;10.50;8.50;;;;;38.27;25.37;98020.53;6285754;27;96748;-60
2021/08/16 12:58:07;;;;;;;;;10.00;10.00;;;;;38.50;25.09;98039.50;6264342;27;96578;-58
2021/08/16 13:01:25;;;;;;;;;10.00;10.00;;;;;38.57;25.83;98037.38;6285494;27;96193;-61
2021/08/16 13:04:41;;;;;;;;;9.60;9.00;;;;;38.60;25.67;98034.94;6286752;27;96957;-61
2021/08/16 13:07:56;;;;;;;;;13.00;12.00;;;;;38.81;26.15;98034.53;6285727;27;96168;-58
2021/08/16 13:11:12;;;;;;;;;10.00;9.00;;;;;39.00;24.92;98022.53;6285615;27;96381;-59
2021/08/16 13:14:27;;;;;;;;;10.00;9.00;;;;;39.10;25.45;98020.75;6285649;27;96924;-59
2021/08/16 13:17:42;;;;;;;;;8.00;8.00;;;;;39.18;25.71;98023.00;6266239;27;96432;-60
2021/08/16 13:20:59;;;;;;;;;10.00;9.80;;;;;38.96;25.39;98013.34;6285978;27;96128;-60
2021/08/16 13:24:14;;;;;;;;;9.60;9.00;;;;;38.75;25.56;98006.06;6284397;27;96183;-59
2021/08/16 13:27:31;;;;;;;;;11.00;10.60;;;;;38.73;26.27;97999.25;6284918;27;96334;-58
2021/08/16 13:30:46;;;;;;;;;9.25;9.00;;;;;38.68;25.66;97985.69;6285883;27;96207;-61
2021/08/16 13:34:01;;;;;;;;;10.60;9.60;;;;;38.62;26.02;97998.66;6286509;27;96909;-58
2021/08/16 13:37:16;;;;;;;;;10.40;10.40;;;;;38.44;26.56;97979.28;6284701;27;96307;-61
2021/08/16 13:40:32;;;;;;;;;11.00;11.00;;;;;38.36;25.92;97980.59;6283517;27;96403;-60
2021/08/16 13:43:47;;;;;;;;;10.00;10.00;;;;;38.17;26.34;97989.78;6284540;27;96591;-61
2021/08/16 13:47:02;;;;;;;;;9.80;9.00;;;;;38.13;26.28;97984.19;6280240;27;96300;-59
2021/08/16 13:50:17;;;;;;;;;11.00;9.20;;;;;38.17;26.17;97970.06;6283002;27;96397;-58
2021/08/16 13:53:33;;;;;;;;;10.00;9.00;;;;;38.39;26.14;97968.47;6284812;27;96768;-59
2021/08/16 13:56:49;;;;;;;;;12.00;11.60;;;;;38.43;26.17;97977.63;6286175;27;96381;-58
2021/08/16 14:00:05;;;;;;;;;10.00;9.00;;;;;38.41;25.01;97975.28;6286850;27;96599;-61
2021/08/16 14:03:21;;;;;;;;;7.00;7.00;;;;;38.63;25.42;97970.06;6285813;27;96424;-60
2021/08/16 14:06:37;;;;;;;;;8.25;8.00;;;;;38.58;25.27;97962.91;6285594;27;96066;-61
2021/08/16 14:09:57;;;;;;;;;10.00;9.00;;;;;38.52;25.21;97950.53;6282455;27;96409;-60
2021/08/16 14:13:12;;;;;;;;;10.80;9.80;;;;;38.45;25.79;97952.72;6285853;27;96397;-60
2021/08/16 14:16:27;;;;;;;;;9.00;8.40;;;;;38.26;25.88;97959.06;6287477;27;96613;-59
2021/08/16 14:19:42;;;;;;;;;9.75;9.00;;;;;38.19;25.32;97959.94;6285295;27;96090;-58